Time;durP1;ratioP1;P1;durP2;ratioP2;P2;SDS_P1;SDS_P2;PMS_P1;PMS_P2;Temp;Humidity;BMP_temperature;BMP_pressure;BME280_temperature;BME280_humidity;BME280_pressure;Samples;Min_cycle;Max_cycle;Signal;HPM_P1;HPM_P2
2021/08/15 00:02:49;;;;;;;16.05;9.45;;;;;;;16.25;71.24;100202.52;2208701;79;21026;-75
2021/08/15 00:05:50;;;;;;;14.87;10.82;;;;;;;16.24;71.41;100196.83;2213843;78;21016;-79
2021/08/15 00:08:51;;;;;;;13.15;10.18;;;;;;;16.24;71.42;100194.67;2215642;78;21339;-78
2021/08/15 00:11:52;;;;;;;17.92;11.40;;;;;;;16.20;71.36;100193.44;2200468;79;21094;-79
2021/08/15 00:14:54;;;;;;;16.27;11.60;;;;;;;16.21;71.61;100195.08;2192859;80;21553;-79
2021/08/15 00:17:55;;;;;;;16.30;11.00;;;;;;;16.20;71.69;100188.09;2205763;79;21115;-77
2021/08/15 00:20:56;;;;;;;19.55;10.78;;;;;;;16.19;71.63;100190.43;2180619;80;21006;-75
2021/08/15 00:23:58;;;;;;;15.60;10.63;;;;;;;16.20;71.80;100190.24;2195089;80;20985;-76
2021/08/15 00:26:59;;;;;;;13.32;10.48;;;;;;;16.20;71.80;100189.42;2193405;80;21081;-76
2021/08/15 00:30:00;;;;;;;17.10;11.03;;;;;;;16.20;71.96;100187.56;2188045;79;20982;-77
2021/08/15 00:33:02;;;;;;;17.00;11.33;;;;;;;16.21;71.98;100182.52;2187881;79;21024;-77
2021/08/15 00:36:07;;;;;;;15.65;11.25;;;;;;;16.21;72.02;100181.69;2196167;79;21038;-79
2021/08/15 00:39:33;;;;;;;13.18;10.03;;;;;;;16.18;72.07;100178.09;2192059;79;21013;-78
2021/08/15 00:42:34;;;;;;;17.80;11.85;;;;;;;16.18;72.06;100180.77;2190222;79;21038;-77
2021/08/15 00:45:35;;;;;;;19.85;11.85;;;;;;;16.17;72.14;100181.80;2193255;79;21053;-75
2021/08/15 00:48:37;;;;;;;19.02;11.45;;;;;;;16.13;72.39;100180.02;2194337;79;21026;-76
2021/08/15 00:51:38;;;;;;;17.30;10.80;;;;;;;16.06;72.42;100175.17;2200774;79;21038;-77
2021/08/15 00:54:41;;;;;;;14.45;10.98;;;;;;;16.02;72.22;100176.09;2195866;79;21048;-79
2021/08/15 00:57:43;;;;;;;17.82;10.80;;;;;;;16.01;72.12;100173.61;2198099;79;21462;-81
2021/08/15 01:00:44;;;;;;;15.78;9.60;;;;;;;15.91;72.22;100168.65;2195071;79;21072;-76
2021/08/15 01:03:45;;;;;;;19.25;13.15;;;;;;;15.86;72.21;100167.90;2190747;79;21025;-77
2021/08/15 01:06:51;;;;;;;25.35;14.83;;;;;;;15.79;72.58;100167.55;2196078;79;20990;-79
2021/08/15 01:09:52;;;;;;;19.17;12.40;;;;;;;15.69;72.65;100166.59;2245819;78;21016;-75
2021/08/15 01:12:53;;;;;;;20.32;12.73;;;;;;;15.60;72.63;100172.59;2219007;78;21026;-74
2021/08/15 01:15:54;;;;;;;18.20;11.57;;;;;;;15.56;72.63;100174.00;2219921;78;20948;-78
2021/08/15 01:18:55;;;;;;;23.55;13.55;;;;;;;15.53;72.45;100169.05;2221117;78;20967;-79
2021/08/15 01:21:58;;;;;;;23.00;13.08;;;;;;;15.48;72.72;100164.80;2214375;79;21017;-78
2021/08/15 01:25:05;;;;;;;17.90;10.88;;;;;;;15.45;72.86;100159.84;2212323;79;21076;-76
2021/08/15 01:28:04;;;;;;;17.10;10.78;;;;;;;15.44;72.77;100163.55;2235249;78;21359;-75
2021/08/15 01:31:06;;;;;;;16.37;11.18;;;;;;;15.42;72.67;100155.72;2224827;78;21026;-77
2021/08/15 01:34:08;;;;;;;16.75;11.10;;;;;;;15.41;73.16;100155.93;2229009;78;21008;-77
2021/08/15 01:37:11;;;;;;;17.25;11.10;;;;;;;15.38;72.86;100161.16;2235318;78;21012;-77
2021/08/15 01:40:13;;;;;;;14.05;10.32;;;;;;;15.35;73.27;100154.05;2231050;78;21460;-79
2021/08/15 01:43:15;;;;;;;17.73;10.60;;;;;;;15.35;73.34;100162.07;2232123;78;21069;-76
2021/08/15 01:46:18;;;;;;;17.32;9.73;;;;;;;15.31;73.03;100157.61;2234766;79;20967;-80
2021/08/15 01:49:19;;;;;;;16.93;11.22;;;;;;;15.32;73.95;100157.12;2227291;78;21053;-80
2021/08/15 01:52:21;;;;;;;13.78;10.88;;;;;;;15.45;74.15;100159.84;2232555;78;20982;-78
2021/08/15 01:55:22;;;;;;;15.28;9.78;;;;;;;15.63;74.18;100152.14;2231446;78;21058;-75
2021/08/15 01:58:23;;;;;;;12.70;10.25;;;;;;;15.68;73.17;100152.41;2230411;78;21002;-78
2021/08/15 02:01:25;;;;;;;14.50;10.20;;;;;;;15.58;72.91;100146.55;2231324;78;21476;-75
2021/08/15 02:04:26;;;;;;;13.62;10.75;;;;;;;15.52;72.96;100148.69;2230074;78;21010;-78
2021/08/15 02:07:28;;;;;;;13.28;10.70;;;;;;;15.46;73.29;100141.47;2230849;78;21049;-76
2021/08/15 02:10:30;;;;;;;18.20;11.15;;;;;;;15.41;73.31;100142.05;2236147;78;21035;-76
2021/08/15 02:13:32;;;;;;;19.67;11.95;;;;;;;15.29;72.97;100139.63;2242374;78;21021;-79
2021/08/15 02:16:33;;;;;;;15.38;11.20;;;;;;;15.18;73.28;100138.32;2233326;78;21468;-76
2021/08/15 02:19:34;;;;;;;16.60;12.85;;;;;;;15.13;73.43;100135.92;2234400;78;21078;-77
2021/08/15 02:22:35;;;;;;;17.55;14.30;;;;;;;15.07;73.40;100142.88;2245494;78;21541;-77
2021/08/15 02:25:37;;;;;;;18.57;13.40;;;;;;;15.01;73.58;100144.48;2247706;77;21009;-76
2021/08/15 02:28:38;;;;;;;21.55;14.20;;;;;;;14.95;73.68;100141.74;2216755;79;21007;-76
2021/08/15 02:31:39;;;;;;;18.07;13.75;;;;;;;14.93;73.85;100137.95;2229581;78;21011;-76
2021/08/15 02:34:40;;;;;;;23.05;13.72;;;;;;;14.93;73.81;100136.61;2229409;78;21551;-75
2021/08/15 02:37:45;;;;;;;17.92;12.98;;;;;;;14.84;73.93;100133.78;2232670;78;21030;-74
2021/08/15 02:40:46;;;;;;;16.05;12.20;;;;;;;14.86;74.06;100133.56;2234509;78;20991;-74
2021/08/15 02:43:47;;;;;;;17.77;11.95;;;;;;;14.87;73.96;100133.39;2234740;78;20993;-76
2021/08/15 02:46:48;;;;;;;17.00;12.25;;;;;;;14.85;73.79;100136.75;2231041;78;21031;-76
2021/08/15 02:49:50;;;;;;;18.85;12.50;;;;;;;14.84;73.56;100134.27;2241179;78;21025;-77
2021/08/15 02:52:51;;;;;;;17.00;11.18;;;;;;;14.82;73.56;100130.98;2240071;78;20973;-77
2021/08/15 02:55:52;;;;;;;16.02;12.85;;;;;;;14.78;73.44;100132.70;2238278;78;21493;-75
2021/08/15 02:58:53;;;;;;;14.65;11.80;;;;;;;14.75;73.69;100131.77;2234223;78;21025;-76
2021/08/15 03:01:54;;;;;;;15.25;11.08;;;;;;;14.74;73.74;100134.09;2235854;78;21585;-74
2021/08/15 03:04:55;;;;;;;15.50;11.85;;;;;;;14.70;73.85;100131.52;2208502;80;21038;-75
2021/08/15 03:07:56;;;;;;;14.87;12.13;;;;;;;14.69;73.85;100127.17;2254610;77;21012;-73
2021/08/15 03:10:58;;;;;;;16.95;12.07;;;;;;;14.66;73.79;100122.22;2226876;77;21033;-78
2021/08/15 03:13:59;;;;;;;15.65;11.90;;;;;;;14.66;73.77;100122.73;2224726;79;21067;-76
2021/08/15 03:17:00;;;;;;;14.45;12.13;;;;;;;14.63;73.81;100122.61;2229011;79;21421;-74
2021/08/15 03:20:01;;;;;;;18.37;11.95;;;;;;;14.62;73.87;100118.81;2225349;79;21008;-76
2021/08/15 03:23:02;;;;;;;20.75;12.80;;;;;;;14.59;73.89;100124.02;2225102;79;20996;-76
2021/08/15 03:26:03;;;;;;;18.17;12.50;;;;;;;14.55;73.95;100126.23;2223372;79;21011;-74
2021/08/15 03:29:04;;;;;;;17.35;12.75;;;;;;;14.54;74.14;100131.27;2227166;79;21496;-75
2021/08/15 03:32:06;;;;;;;15.32;12.47;;;;;;;14.50;74.11;100123.30;2224915;78;21007;-75
2021/08/15 03:35:07;;;;;;;15.38;11.95;;;;;;;14.48;73.97;100123.17;2173387;81;21008;-73
2021/08/15 03:38:09;;;;;;;16.10;11.03;;;;;;;14.45;74.09;100128.91;2146162;79;60534;-88
2021/08/15 03:41:10;;;;;;;15.85;12.13;;;;;;;14.42;74.05;100129.28;2141390;82;21036;-87
2021/08/15 03:44:12;;;;;;;15.35;10.95;;;;;;;14.39;74.16;100129.64;2119643;83;21043;-86
2021/08/15 03:47:13;;;;;;;14.87;10.88;;;;;;;14.37;74.25;100131.70;2130322;83;20971;-85
2021/08/15 03:50:14;;;;;;;17.25;12.95;;;;;;;14.37;74.49;100127.70;2133050;83;21051;-89
2021/08/15 03:53:15;;;;;;;15.13;12.00;;;;;;;14.35;74.61;100123.35;2122505;83;21036;-88
2021/08/15 03:56:16;;;;;;;19.65;12.37;;;;;;;14.35;74.81;100122.53;2120919;82;21079;-87
2021/08/15 03:59:18;;;;;;;15.53;12.53;;;;;;;14.37;74.83;100119.69;2120929;83;21119;-87
2021/08/15 04:02:19;;;;;;;16.40;11.95;;;;;;;14.38;74.74;100121.33;2131623;83;21007;-86
2021/08/15 04:05:20;;;;;;;15.40;11.75;;;;;;;14.43;75.03;100116.25;2152110;81;21553;-86
2021/08/15 04:08:21;;;;;;;16.82;11.40;;;;;;;14.47;75.03;100116.16;2123424;83;21100;-87
2021/08/15 04:11:23;;;;;;;12.58;10.63;;;;;;;14.54;75.09;100109.91;2157759;82;21617;-89
2021/08/15 04:14:24;;;;;;;12.65;10.82;;;;;;;14.65;75.20;100103.73;2155280;81;21042;-87
2021/08/15 04:17:25;;;;;;;14.85;10.88;;;;;;;14.85;75.25;100098.02;2153986;82;20960;-87
2021/08/15 04:20:26;;;;;;;15.40;10.58;;;;;;;15.07;75.03;100100.12;2158401;82;20991;-88
2021/08/15 04:23:27;;;;;;;11.05;9.90;;;;;;;15.34;75.02;100096.24;2144515;82;20944;-88
2021/08/15 04:26:28;;;;;;;14.55;9.95;;;;;;;15.67;74.79;100096.39;2153289;81;20951;-86
2021/08/15 04:29:29;;;;;;;16.57;10.50;;;;;;;16.00;74.52;100091.16;2168636;81;21057;-85
2021/08/15 04:32:30;;;;;;;10.53;9.30;;;;;;;16.38;74.20;100094.59;2158165;81;20971;-87
2021/08/15 04:35:31;;;;;;;13.13;9.50;;;;;;;16.73;73.90;100093.07;2160764;82;21512;-88
2021/08/15 04:38:33;;;;;;;12.03;10.68;;;;;;;17.11;73.34;100095.09;2158367;82;21059;-88
2021/08/15 04:41:34;;;;;;;13.13;10.50;;;;;;;17.51;73.07;100093.61;2155830;82;20998;-86
2021/08/15 04:44:35;;;;;;;14.18;11.05;;;;;;;17.83;72.46;100094.02;2154248;82;20994;-86
2021/08/15 04:47:36;;;;;;;14.73;11.90;;;;;;;18.09;72.04;100093.03;2161231;81;21014;-89
2021/08/15 04:50:37;;;;;;;14.40;11.60;;;;;;;18.47;71.79;100095.34;2161865;81;21038;-86
2021/08/15 04:53:38;;;;;;;16.65;12.03;;;;;;;18.86;71.41;100095.54;2156794;81;21468;-87
2021/08/15 04:56:39;;;;;;;14.95;12.13;;;;;;;19.29;70.91;100093.85;2162287;81;21030;-86
2021/08/15 04:59:40;;;;;;;15.58;11.65;;;;;;;19.76;70.51;100096.83;2156026;82;21027;-89
2021/08/15 05:02:41;;;;;;;15.48;12.13;;;;;;;20.10;69.89;100084.54;2156133;81;20965;-87
2021/08/15 05:05:43;;;;;;;15.68;12.07;;;;;;;20.43;69.47;100089.95;2161210;82;21012;-89
2021/08/15 05:08:44;;;;;;;14.47;11.18;;;;;;;20.84;68.81;100085.57;2152500;81;21008;-88
2021/08/15 05:11:47;;;;;;;13.78;12.25;;;;;;;21.20;68.39;100093.39;2157465;81;21042;-89
2021/08/15 05:14:48;;;;;;;14.68;11.00;;;;;;;21.67;67.85;100086.52;2162482;82;20995;-89
2021/08/15 05:17:49;;;;;;;15.95;12.05;;;;;;;22.03;66.70;100092.60;2161160;81;20998;-89
2021/08/15 05:20:50;;;;;;;19.00;13.43;;;;;;;22.27;65.88;100095.19;2162811;81;21472;-89
2021/08/15 05:23:52;;;;;;;15.08;11.95;;;;;;;22.53;65.05;100116.73;2160953;81;21010;-89
2021/08/15 05:26:53;;;;;;;17.95;13.55;;;;;;;22.70;63.76;100144.59;2159620;81;21058;-88
2021/08/15 05:29:54;;;;;;;16.17;13.00;;;;;;;22.56;64.11;100135.98;2160255;81;21009;-88
2021/08/15 05:32:55;;;;;;;21.97;13.85;;;;;;;22.75;63.95;100151.44;2159872;81;20979;-88
2021/08/15 05:35:57;;;;;;;16.75;13.40;;;;;;;22.76;63.37;100144.95;2160891;82;20978;-89
2021/08/15 05:38:58;;;;;;;20.30;13.83;;;;;;;22.94;63.43;100148.45;2160457;81;20996;-89
2021/08/15 05:41:59;;;;;;;17.67;13.10;;;;;;;23.14;62.62;100148.78;2157960;82;21589;-87
2021/08/15 05:45:01;;;;;;;18.35;13.50;;;;;;;23.29;62.40;100135.20;2161100;81;20956;-88
2021/08/15 05:48:02;;;;;;;17.05;13.55;;;;;;;23.62;62.21;100132.35;2159808;81;21002;-89
2021/08/15 05:51:05;;;;;;;19.10;12.58;;;;;;;23.86;61.20;100132.95;2156172;81;20960;-87
2021/08/15 05:54:06;;;;;;;16.25;13.78;;;;;;;24.16;61.04;100132.45;2161615;82;21030;-88
2021/08/15 05:57:08;;;;;;;18.52;13.32;;;;;;;24.45;60.64;100125.42;2158574;82;21472;-89
2021/08/15 06:00:09;;;;;;;20.82;13.72;;;;;;;24.70;60.15;100113.95;2159502;82;21069;-90
2021/08/15 06:03:13;;;;;;;18.50;13.38;;;;;;;24.85;59.60;100119.20;2163912;81;21062;-87
2021/08/15 06:06:14;;;;;;;17.27;14.28;;;;;;;25.32;59.29;100113.00;2158695;82;20999;-85
2021/08/15 06:09:15;;;;;;;19.70;13.55;;;;;;;25.74;58.81;100110.72;2155882;81;21038;-87
2021/08/15 06:12:17;;;;;;;18.27;13.58;;;;;;;26.14;58.17;100107.28;2159895;82;20964;-87
2021/08/15 06:15:18;;;;;;;16.07;12.75;;;;;;;26.60;57.62;100114.13;2158754;81;20948;-89
2021/08/15 06:18:19;;;;;;;13.88;12.18;;;;;;;26.76;56.08;100108.94;2158693;81;20952;-89
2021/08/15 06:21:21;;;;;;;20.52;12.13;;;;;;;26.99;55.72;100103.45;2156105;82;21010;-88
2021/08/15 06:24:22;;;;;;;15.65;12.00;;;;;;;27.23;55.31;100105.61;2161454;81;21015;-88
2021/08/15 06:27:23;;;;;;;13.72;11.03;;;;;;;27.38;54.27;100104.73;2157078;82;21571;-89
2021/08/15 06:30:25;;;;;;;13.22;9.43;;;;;;;27.70;54.13;100103.73;2159871;82;21029;-88
2021/08/15 06:33:26;;;;;;;12.73;9.78;;;;;;;28.08;51.99;100101.92;2158792;82;21014;-88
2021/08/15 06:36:27;;;;;;;12.23;9.38;;;;;;;28.23;52.07;100099.62;2161648;81;21492;-88
2021/08/15 06:39:28;;;;;;;14.28;9.18;;;;;;;28.75;51.96;100102.22;2155091;82;21042;-90
2021/08/15 06:42:30;;;;;;;9.75;8.20;;;;;;;29.22;50.64;100106.91;2157675;82;21516;-88
2021/08/15 06:45:31;;;;;;;11.38;8.90;;;;;;;29.47;49.30;100109.88;2156092;82;21009;-88
2021/08/15 06:48:32;;;;;;;13.60;9.15;;;;;;;29.60;49.22;100113.83;2155910;82;21023;-88
2021/08/15 06:51:36;;;;;;;13.30;8.13;;;;;;;29.85;48.70;100110.53;2160394;82;21047;-87
2021/08/15 06:54:38;;;;;;;10.03;8.18;;;;;;;30.11;48.13;100115.06;2157565;82;20958;-86
2021/08/15 06:57:39;;;;;;;11.10;8.55;;;;;;;30.41;47.72;100103.38;2165184;81;20999;-90
2021/08/15 07:00:41;;;;;;;8.98;8.00;;;;;;;31.20;46.26;100107.46;2168453;81;20979;-88
2021/08/15 07:03:42;;;;;;;9.18;7.92;;;;;;;31.20;46.26;100107.46;2162414;82;20994;-87
2021/08/15 07:06:43;;;;;;;12.80;8.80;;;;;;;31.20;45.53;100106.90;2166398;82;20974;-88
2021/08/15 07:09:44;;;;;;;12.58;8.08;;;;;;;31.32;45.07;100111.05;2164278;82;21042;-89
2021/08/15 07:12:48;;;;;;;13.25;8.10;;;;;;;31.52;44.46;100109.28;2167618;81;20971;-87
2021/08/15 07:15:53;;;;;;;12.43;7.22;;;;;;;31.71;44.17;100111.33;2162592;81;21465;-89
2021/08/15 07:18:54;;;;;;;12.98;7.92;;;;;;;31.87;43.38;100110.97;2167228;82;21527;-89
2021/08/15 07:21:55;;;;;;;9.75;7.10;;;;;;;31.93;42.91;100108.39;2157095;81;21494;-88
2021/08/15 07:24:56;;;;;;;10.48;7.15;;;;;;;31.96;42.43;100113.28;2158021;82;21042;-88
2021/08/15 07:28:00;;;;;;;11.68;7.65;;;;;;;32.18;41.95;100114.41;2166601;82;20955;-89
2021/08/15 07:31:01;;;;;;;8.00;6.83;;;;;;;32.43;41.65;100112.41;2169192;81;21005;-88
2021/08/15 07:34:02;;;;;;;8.10;6.85;;;;;;;32.63;41.05;100110.30;2162515;82;20976;-87
2021/08/15 07:37:04;;;;;;;8.25;6.37;;;;;;;32.76;40.61;100106.66;2168975;81;21448;-88
2021/08/15 07:40:07;;;;;;;7.42;6.15;;;;;;;32.82;40.13;100106.20;2168582;81;20974;-90
2021/08/15 07:43:08;;;;;;;16.97;6.87;;;;;;;32.89;39.96;100112.63;2171954;81;21049;-86
2021/08/15 07:46:13;;;;;;;10.68;6.05;;;;;;;32.97;39.42;100103.62;2178240;80;20951;-87
2021/08/15 07:49:12;;;;;;;8.95;6.08;;;;;;;32.90;39.31;100105.19;2174042;81;21058;-87
2021/08/15 07:52:14;;;;;;;10.13;6.25;;;;;;;32.88;38.89;100111.56;2177145;81;20967;-89
2021/08/15 07:55:15;;;;;;;8.80;6.55;;;;;;;32.67;39.17;100110.73;2174079;80;20998;-87
2021/08/15 07:58:17;;;;;;;11.15;6.00;;;;;;;32.70;39.26;100104.61;2168903;81;21697;-88
2021/08/15 08:01:18;;;;;;;15.72;6.17;;;;;;;32.61;38.53;100102.39;2173186;80;20985;-87
2021/08/15 08:04:20;;;;;;;7.72;5.90;;;;;;;32.56;38.83;100113.50;2170132;81;21037;-89
2021/08/15 08:07:24;;;;;;;7.80;6.72;;;;;;;32.74;39.07;100107.53;2179011;81;20955;-87
2021/08/15 08:10:25;;;;;;;8.23;6.78;;;;;;;32.62;38.17;100101.82;2173545;81;21448;-89
2021/08/15 08:13:28;;;;;;;8.83;6.30;;;;;;;32.57;38.75;100098.06;2170822;81;21042;-88
2021/08/15 08:16:30;;;;;;;7.97;6.87;;;;;;;32.69;38.68;100096.67;2174600;80;21013;-89
2021/08/15 08:19:31;;;;;;;9.18;7.03;;;;;;;32.92;38.44;100090.02;2180350;81;21416;-87
2021/08/15 08:22:32;;;;;;;12.33;7.53;;;;;;;33.00;38.36;100097.52;2167770;81;20955;-86
2021/08/15 08:25:34;;;;;;;10.32;6.75;;;;;;;33.16;38.76;100096.50;2171754;81;20950;-88
2021/08/15 08:28:36;;;;;;;8.20;6.65;;;;;;;33.21;38.34;100088.11;2172216;81;20986;-87
2021/08/15 08:31:37;;;;;;;9.88;5.85;;;;;;;33.32;38.04;100083.13;2169274;81;20959;-87
2021/08/15 08:34:38;;;;;;;6.47;5.65;;;;;;;33.30;38.11;100085.95;2169839;81;20974;-88
2021/08/15 08:37:39;;;;;;;11.10;6.25;;;;;;;33.32;37.45;100087.83;2178495;81;21014;-88
2021/08/15 08:40:42;;;;;;;14.50;6.62;;;;;;;33.16;37.44;100088.83;2172946;81;21101;-90
2021/08/15 08:43:44;;;;;;;8.53;4.90;;;;;;;33.15;37.73;100083.89;2158609;81;20972;-88
2021/08/15 08:46:46;;;;;;;9.23;4.75;;;;;;;33.01;37.35;100087.33;2166751;81;21567;-88
2021/08/15 08:49:47;;;;;;;9.63;5.37;;;;;;;33.24;37.79;100087.47;2159761;81;21523;-89
2021/08/15 08:52:48;;;;;;;8.38;5.25;;;;;;;33.31;36.53;100086.19;2172817;81;21035;-88
2021/08/15 08:55:50;;;;;;;5.78;5.12;;;;;;;33.31;36.11;100085.65;2171990;81;20997;-89
2021/08/15 08:58:51;;;;;;;6.00;4.85;;;;;;;33.35;36.76;100085.23;2173062;81;20986;-87
2021/08/15 09:01:53;;;;;;;6.78;4.80;;;;;;;33.39;35.30;100083.45;2171024;81;21511;-88
2021/08/15 09:04:54;;;;;;;5.70;5.10;;;;;;;33.37;36.08;100083.56;2179062;81;20978;-88
2021/08/15 09:07:55;;;;;;;5.95;5.30;;;;;;;33.39;36.09;100076.58;2177625;81;21566;-89
2021/08/15 09:11:22;;;;;;;20.95;5.28;;;;;;;33.50;35.98;100081.22;2171767;81;21516;-89
2021/08/15 09:14:24;;;;;;;4.90;4.40;;;;;;;33.40;35.52;100082.92;2168212;81;21050;-88
2021/08/15 09:17:30;;;;;;;6.10;4.70;;;;;;;33.42;34.99;100077.34;2169896;81;21012;-88
2021/08/15 09:20:44;;;;;;;6.47;4.45;;;;;;;33.09;34.75;100071.44;2167155;81;21014;-88
2021/08/15 09:23:45;;;;;;;10.20;4.33;;;;;;;33.03;35.52;100082.33;2167848;80;20986;-88
2021/08/15 09:26:58;;;;;;;5.75;4.17;;;;;;;32.94;34.62;100082.23;2171276;81;20998;-87
2021/08/15 09:30:14;;;;;;;5.25;4.08;;;;;;;33.04;35.09;100075.70;2167215;81;20991;-88
2021/08/15 09:33:17;;;;;;;9.63;4.28;;;;;;;33.17;34.77;100072.56;2159383;81;20959;-88
2021/08/15 09:36:36;;;;;;;7.28;4.58;;;;;;;33.13;34.80;100066.10;2174297;80;21025;-87
2021/08/15 09:39:37;;;;;;;5.72;4.35;;;;;;;33.29;35.02;100071.41;2163121;81;21008;-89
2021/08/15 09:42:45;;;;;;;6.70;3.72;;;;;;;33.29;35.02;100071.41;2168220;82;21547;-88
2021/08/15 09:45:54;;;;;;;4.97;4.33;;;;;;;33.53;35.07;100067.42;2163016;81;21016;-88
2021/08/15 09:49:01;;;;;;;8.00;4.35;;;;;;;33.50;34.29;100068.84;2170723;81;20971;-88
2021/08/15 09:51:58;;;;;;;9.43;4.53;;;;;;;33.60;34.83;100058.95;2159415;81;21007;-86
2021/08/15 09:55:00;;;;;;;9.33;4.97;;;;;;;33.53;34.00;100058.59;2163467;82;20983;-90
2021/08/15 09:58:17;;;;;;;7.83;4.47;;;;;;;33.26;34.28;100056.36;2166910;82;21475;-89
2021/08/15 10:01:19;;;;;;;7.97;4.03;;;;;;;33.29;34.05;100057.66;2167246;82;21007;-89
2021/08/15 10:04:24;;;;;;;6.25;4.05;;;;;;;33.52;33.91;100051.48;2163343;82;20959;-89
2021/08/15 10:07:25;;;;;;;5.40;3.98;;;;;;;33.42;33.67;100047.09;2159887;82;20986;-89
2021/08/15 10:10:27;;;;;;;5.35;4.37;;;;;;;33.52;33.96;100041.87;2163705;81;21006;-86
2021/08/15 10:13:28;;;;;;;4.75;3.83;;;;;;;33.75;34.06;100043.89;2169350;81;21496;-87
2021/08/15 10:17:01;;;;;;;5.12;3.55;;;;;;;33.89;33.27;100036.84;2162248;81;21049;-88
2021/08/15 10:20:07;;;;;;;6.15;4.03;;;;;;;33.79;33.15;100033.87;2167611;82;20987;-86
2021/08/15 10:23:12;;;;;;;4.08;3.67;;;;;;;33.67;33.20;100033.13;2169311;81;20979;-87
2021/08/15 10:26:34;;;;;;;7.30;3.80;;;;;;;33.61;33.04;100039.12;2163029;81;21022;-90
2021/08/15 10:29:39;;;;;;;5.67;4.15;;;;;;;33.55;33.00;100037.09;2164077;82;21002;-88
2021/08/15 10:33:04;;;;;;;7.95;3.92;;;;;;;33.47;33.46;100026.86;2162236;82;21063;-87
2021/08/15 10:36:19;;;;;;;6.15;4.42;;;;;;;33.40;33.28;100020.48;2167740;81;22370;-88
2021/08/15 10:39:37;;;;;;;10.13;4.60;;;;;;;33.41;33.43;100019.91;2172403;81;21041;-87
2021/08/15 10:42:43;;;;;;;4.30;3.90;;;;;;;33.45;33.54;100018.95;2159865;81;20982;-89
2021/08/15 10:46:07;;;;;;;6.10;4.30;;;;;;;33.35;33.74;100014.33;2175808;81;20982;-89
2021/08/15 10:49:09;;;;;;;4.95;3.45;;;;;;;33.34;33.35;100010.77;2172971;80;20990;-87
2021/08/15 10:52:34;;;;;;;7.00;3.70;;;;;;;33.18;33.45;100010.41;2171025;81;21037;-88
2021/08/15 10:55:40;;;;;;;5.50;4.10;;;;;;;33.09;33.22;100013.72;2177131;81;21077;-88
2021/08/15 10:58:44;;;;;;;6.05;4.42;;;;;;;32.81;33.26;100003.51;2174557;81;20998;-88
2021/08/15 11:01:46;;;;;;;5.08;4.30;;;;;;;32.50;33.30;100004.36;2173570;81;21064;-87
2021/08/15 11:04:59;;;;;;;4.20;3.42;;;;;;;32.32;33.90;99999.86;2168180;81;20982;-87
2021/08/15 11:08:00;;;;;;;5.00;3.65;;;;;;;32.29;33.98;100000.49;2172814;81;20982;-87
2021/08/15 11:11:18;;;;;;;5.42;4.40;;;;;;;31.87;34.13;99999.88;2172782;80;21580;-84
2021/08/15 11:14:25;;;;;;;6.45;3.80;;;;;;;31.70;34.31;100006.04;2175219;81;20970;-87
2021/08/15 11:17:30;;;;;;;4.47;3.72;;;;;;;31.61;35.09;100004.59;2171633;80;21661;-89
2021/08/15 11:20:47;;;;;;;4.15;3.65;;;;;;;31.75;34.66;100007.86;2171040;81;20991;-87
2021/08/15 11:23:49;;;;;;;4.35;3.95;;;;;;;31.83;34.95;99996.95;2170455;81;20975;-87
2021/08/15 11:26:51;;;;;;;5.85;4.00;;;;;;;32.13;35.15;99991.30;2174962;81;21007;-89
2021/08/15 11:29:52;;;;;;;4.37;3.90;;;;;;;32.07;34.41;99998.05;2169922;80;20970;-88
2021/08/15 11:32:57;;;;;;;5.70;3.77;;;;;;;32.04;34.53;99992.35;2171194;81;21061;-89
2021/08/15 11:35:58;;;;;;;16.02;4.17;;;;;;;32.00;34.40;99992.74;2167569;81;21022;-87
2021/08/15 11:39:00;;;;;;;3.80;3.50;;;;;;;32.05;34.33;99989.31;2166278;81;21062;-87
2021/08/15 11:42:06;;;;;;;4.03;3.27;;;;;;;31.94;33.60;99987.95;2171778;81;20955;-88
2021/08/15 11:45:09;;;;;;;4.55;3.20;;;;;;;31.93;33.80;99980.28;2173319;81;21030;-90
2021/08/15 11:48:18;;;;;;;11.50;3.58;;;;;;;32.05;33.72;99978.33;2172322;80;21002;-88
2021/08/15 11:51:19;;;;;;;3.92;3.20;;;;;;;32.10;33.33;99978.20;2172128;81;21026;-88
2021/08/15 11:54:36;;;;;;;3.72;3.35;;;;;;;32.10;33.60;99976.84;2168623;81;21635;-87
2021/08/15 11:57:56;;;;;;;4.20;3.33;;;;;;;32.10;33.26;99971.34;2172917;81;21045;-87
2021/08/15 12:01:05;;;;;;;5.20;3.35;;;;;;;32.25;33.41;99960.52;2174106;81;21080;-87
2021/08/15 12:04:06;;;;;;;10.85;4.45;;;;;;;32.16;32.95;99969.28;2165960;81;20987;-89
2021/08/15 12:07:08;;;;;;;6.72;3.27;;;;;;;32.09;33.24;99964.22;2178783;80;21025;-87
2021/08/15 12:10:27;;;;;;;3.98;3.47;;;;;;;32.08;33.48;99964.55;2170961;81;21430;-86
2021/08/15 12:13:38;;;;;;;5.60;3.50;;;;;;;32.08;33.27;99962.61;2169530;81;21010;-84
2021/08/15 12:16:56;;;;;;;4.05;3.15;;;;;;;31.98;32.76;99958.75;2171796;80;21003;-87
2021/08/15 12:20:21;;;;;;;5.67;3.37;;;;;;;31.91;32.48;99957.03;2165807;81;21049;-89
2021/08/15 12:23:22;;;;;;;5.17;3.17;;;;;;;31.85;32.74;99950.83;2172079;81;20989;-88
2021/08/15 12:26:26;;;;;;;4.75;3.70;;;;;;;31.77;32.66;99957.06;2172457;81;21472;-89
2021/08/15 12:29:44;;;;;;;4.70;3.40;;;;;;;31.71;32.84;99952.83;2176064;80;21086;-88
2021/08/15 12:32:45;;;;;;;5.45;3.25;;;;;;;31.77;33.14;99949.41;2168597;81;21022;-88
2021/08/15 12:35:46;;;;;;;8.85;3.58;;;;;;;31.71;33.00;99939.92;2170534;80;20960;-88
2021/08/15 12:38:51;;;;;;;17.12;4.00;;;;;;;31.85;33.28;99944.53;2170361;81;20994;-88
2021/08/15 12:42:03;;;;;;;4.03;3.22;;;;;;;31.78;33.14;99938.67;2163346;81;21035;-86
2021/08/15 12:45:09;;;;;;;3.55;3.25;;;;;;;31.49;32.54;99939.35;2160885;81;21027;-86
2021/08/15 12:48:11;;;;;;;4.53;3.58;;;;;;;31.06;32.96;99933.48;2156719;82;21029;-89
2021/08/15 12:51:17;;;;;;;4.83;3.70;;;;;;;30.95;33.79;99936.19;2162398;81;21003;-89
2021/08/15 12:54:19;;;;;;;4.05;3.33;;;;;;;31.12;33.92;99932.25;2162712;81;21082;-88
2021/08/15 12:57:20;;;;;;;4.33;3.92;;;;;;;31.26;34.08;99931.64;2166780;82;20987;-87
2021/08/15 13:00:25;;;;;;;4.47;3.72;;;;;;;31.41;34.14;99923.64;2170013;82;21446;-88
2021/08/15 13:03:26;;;;;;;13.40;3.70;;;;;;;31.51;34.44;99923.98;2166258;82;21622;-86
2021/08/15 13:06:27;;;;;;;7.17;3.72;;;;;;;31.62;34.13;99925.35;2166320;82;21298;-89
2021/08/15 13:09:29;;;;;;;7.33;3.33;;;;;;;31.70;34.10;99922.39;2169472;81;20960;-87
2021/08/15 13:12:30;;;;;;;4.50;3.55;;;;;;;31.74;34.28;99922.03;2160515;82;21079;-86
2021/08/15 13:15:34;;;;;;;3.92;3.30;;;;;;;31.71;34.13;99920.73;2161653;82;20990;-89
2021/08/15 13:18:36;;;;;;;30.52;5.12;;;;;;;31.69;34.14;99918.84;2158968;82;21022;-90
2021/08/15 13:21:37;;;;;;;4.20;3.70;;;;;;;31.64;34.59;99917.59;2162022;82;20952;-88
2021/08/15 13:24:39;;;;;;;4.37;3.98;;;;;;;31.56;34.03;99910.13;2165785;81;21566;-88
2021/08/15 13:27:40;;;;;;;4.65;3.47;;;;;;;31.49;34.30;99908.39;2160999;81;20977;-88
2021/08/15 13:30:41;;;;;;;6.03;3.95;;;;;;;31.52;34.24;99904.22;2159306;81;21801;-88
2021/08/15 13:33:42;;;;;;;6.62;3.72;;;;;;;31.40;34.52;99902.84;2168046;81;21003;-87
2021/08/15 13:36:44;;;;;;;5.22;3.92;;;;;;;31.37;34.41;99899.93;2165307;82;20991;-89
2021/08/15 13:39:45;;;;;;;4.85;4.35;;;;;;;31.31;34.51;99890.16;2170508;81;20983;-89
2021/08/15 13:42:46;;;;;;;8.65;3.92;;;;;;;31.32;34.46;99895.34;2173707;81;20994;-89
2021/08/15 13:45:48;;;;;;;4.80;3.50;;;;;;;31.36;34.83;99892.80;2169332;81;21441;-90
2021/08/15 13:48:49;;;;;;;6.83;3.35;;;;;;;31.35;34.49;99884.31;2161229;80;21063;-88
2021/08/15 13:51:50;;;;;;;4.05;3.45;;;;;;;31.41;34.42;99881.73;2175912;81;20986;-89
2021/08/15 13:54:52;;;;;;;4.42;3.80;;;;;;;31.37;34.73;99879.37;2175493;80;21568;-89
2021/08/15 13:57:53;;;;;;;8.90;4.37;;;;;;;31.34;34.59;99877.20;2170580;81;21508;-88
2021/08/15 14:00:55;;;;;;;11.48;4.15;;;;;;;31.39;34.95;99872.99;2174896;80;21338;-89
2021/08/15 14:03:56;;;;;;;9.10;3.52;;;;;;;31.25;34.24;99870.28;2175943;81;21022;-90
2021/08/15 14:07:00;;;;;;;5.10;4.08;;;;;;;31.14;35.24;99869.73;2168308;81;21045;-87